createdAt,value
2024-01-26T00:01:28.404Z,100.00
2024-01-26T00:04:13.899Z,100.00
2024-01-26T00:06:59.376Z,100.00
2024-01-26T00:09:44.655Z,100.00
2024-01-26T00:12:29.697Z,100.00
2024-01-26T00:15:15.711Z,100.00
2024-01-26T00:18:00.972Z,100.00
2024-01-26T00:20:45.866Z,100.00
2024-01-26T00:23:31.593Z,100.00
2024-01-26T00:26:16.835Z,100.00
2024-01-26T00:29:01.804Z,100.00
2024-01-26T00:31:46.732Z,100.00
2024-01-26T00:34:31.505Z,100.00
2024-01-26T00:37:16.943Z,100.00
2024-01-26T00:40:02.235Z,100.00
2024-01-26T00:42:47.443Z,100.00
2024-01-26T00:45:32.353Z,100.00
2024-01-26T00:48:17.404Z,100.00
2024-01-26T00:51:02.345Z,100.00
2024-01-26T00:53:47.308Z,100.00
2024-01-26T00:56:32.684Z,100.00
2024-01-26T00:59:18.181Z,100.00
2024-01-26T01:02:03.775Z,100.00
2024-01-26T01:04:48.832Z,100.00
2024-01-26T01:07:34.037Z,100.00
2024-01-26T01:10:19.242Z,100.00
2024-01-26T01:13:04.793Z,100.00
2024-01-26T01:15:49.940Z,100.00
2024-01-26T01:18:35.036Z,100.00
2024-01-26T01:21:20.308Z,100.00
2024-01-26T01:24:05.546Z,100.00
2024-01-26T01:26:50.594Z,100.00
2024-01-26T01:29:35.445Z,100.00
2024-01-26T01:32:20.287Z,100.00
2024-01-26T01:35:05.483Z,100.00
2024-01-26T01:37:50.595Z,100.00
2024-01-26T01:40:35.416Z,100.00
2024-01-26T01:43:20.436Z,100.00
2024-01-26T01:46:05.386Z,100.00
2024-01-26T01:48:51.564Z,100.00
2024-01-26T01:51:38.598Z,100.00
2024-01-26T01:54:24.706Z,100.00
2024-01-26T01:57:13.786Z,100.00
2024-01-26T01:59:59.162Z,100.00
2024-01-26T02:02:45.773Z,100.00
2024-01-26T02:05:31.048Z,100.00
2024-01-26T02:08:16.474Z,100.00
2024-01-26T02:11:01.493Z,100.00
2024-01-26T02:13:46.399Z,100.00
2024-01-26T02:16:31.230Z,100.00
2024-01-26T02:19:16.640Z,100.00
2024-01-26T02:22:01.688Z,100.00
2024-01-26T02:24:46.621Z,100.00
2024-01-26T02:27:31.915Z,100.00
2024-01-26T02:30:16.966Z,100.00
2024-01-26T02:33:01.883Z,100.00
2024-01-26T02:35:47.078Z,100.00
2024-01-26T02:38:32.038Z,100.00
2024-01-26T02:41:16.876Z,100.00
2024-01-26T02:44:02.121Z,100.00
2024-01-26T02:46:47.283Z,100.00
2024-01-26T02:49:33.599Z,100.00
2024-01-26T02:52:18.709Z,100.00
2024-01-26T02:55:03.722Z,100.00
2024-01-26T02:57:49.072Z,100.00
2024-01-26T03:00:33.969Z,100.00
2024-01-26T03:03:18.964Z,100.00
2024-01-26T03:06:04.606Z,100.00
2024-01-26T03:08:49.670Z,100.00
2024-01-26T03:11:42.843Z,100.00
2024-01-26T03:14:27.864Z,100.00
2024-01-26T03:17:13.176Z,100.00
2024-01-26T03:19:58.061Z,100.00
2024-01-26T03:22:42.865Z,100.00
2024-01-26T03:25:27.736Z,100.00
2024-01-26T03:28:12.668Z,100.00
2024-01-26T03:30:57.534Z,100.00
2024-01-26T03:33:43.770Z,100.00
2024-01-26T03:36:28.877Z,100.00
2024-01-26T03:39:13.882Z,100.00
2024-01-26T03:41:59.284Z,100.00
2024-01-26T03:44:44.652Z,100.00
2024-01-26T03:47:30.044Z,100.00
2024-01-26T03:50:15.045Z,100.00
2024-01-26T03:52:59.995Z,100.00
2024-01-26T03:55:45.317Z,100.00
2024-01-26T03:58:30.220Z,100.00
2024-01-26T04:01:15.096Z,100.00
2024-01-26T04:03:59.949Z,100.00
2024-01-26T04:06:44.827Z,100.00
2024-01-26T04:09:29.836Z,100.00
2024-01-26T04:12:14.940Z,100.00
2024-01-26T04:15:00.208Z,100.00
2024-01-26T04:17:45.323Z,100.00
2024-01-26T04:20:30.641Z,100.00
2024-01-26T04:23:16.332Z,100.00
2024-01-26T04:26:01.687Z,100.00
2024-01-26T04:28:46.682Z,100.00
2024-01-26T04:31:31.685Z,100.00
2024-01-26T04:34:16.712Z,100.00
2024-01-26T04:37:01.872Z,100.00
2024-01-26T04:39:46.724Z,100.00
2024-01-26T04:42:31.731Z,100.00
2024-01-26T04:45:16.692Z,100.00
2024-01-26T04:48:02.027Z,100.00
2024-01-26T04:50:46.855Z,100.00
2024-01-26T04:53:31.800Z,100.00
2024-01-26T04:56:16.617Z,100.00
2024-01-26T04:59:01.527Z,100.00
2024-01-26T05:01:46.463Z,100.00
2024-01-26T05:04:31.345Z,100.00
2024-01-26T05:07:16.136Z,100.00
2024-01-26T05:10:01.612Z,100.00
2024-01-26T05:12:46.856Z,100.00
2024-01-26T05:15:31.919Z,100.00
2024-01-26T05:18:17.089Z,100.00
2024-01-26T05:21:02.420Z,100.00
2024-01-26T05:23:47.262Z,100.00
2024-01-26T05:26:32.272Z,100.00
2024-01-26T05:29:17.180Z,100.00
2024-01-26T05:32:02.005Z,100.00
2024-01-26T05:34:47.108Z,100.00
2024-01-26T05:37:32.400Z,100.00
2024-01-26T05:40:17.517Z,100.00
2024-01-26T05:43:02.345Z,100.00
2024-01-26T05:45:47.235Z,100.00
2024-01-26T05:48:32.212Z,100.00
2024-01-26T05:51:17.588Z,100.00
2024-01-26T05:54:02.630Z,100.00
2024-01-26T05:56:47.585Z,100.00
2024-01-26T05:59:32.496Z,100.00
2024-01-26T06:02:17.327Z,100.00
2024-01-26T06:05:02.192Z,100.00
2024-01-26T06:07:46.978Z,100.00
2024-01-26T06:10:31.877Z,100.00
2024-01-26T06:13:16.724Z,100.00
2024-01-26T06:16:01.635Z,100.00
2024-01-26T06:18:46.559Z,100.00
2024-01-26T06:21:32.016Z,100.00
2024-01-26T06:24:17.438Z,100.00
2024-01-26T06:27:02.787Z,100.00
2024-01-26T06:29:47.675Z,100.00
2024-01-26T06:32:33.028Z,100.00
2024-01-26T06:35:18.720Z,100.00
2024-01-26T06:38:04.084Z,100.00
2024-01-26T06:40:49.246Z,100.00
2024-01-26T06:43:34.707Z,100.00
2024-01-26T06:46:22.711Z,100.00
2024-01-26T06:49:07.838Z,100.00
2024-01-26T06:51:53.280Z,100.00
2024-01-26T06:54:38.515Z,100.00
2024-01-26T06:57:23.681Z,100.00
2024-01-26T07:00:09.188Z,100.00
2024-01-26T07:02:54.504Z,100.00
2024-01-26T07:05:39.360Z,100.00
2024-01-26T07:08:24.485Z,100.00
2024-01-26T07:11:09.509Z,100.00
2024-01-26T07:13:54.357Z,100.00
2024-01-26T07:16:39.344Z,100.00
2024-01-26T07:19:24.285Z,100.00
2024-01-26T07:22:09.568Z,100.00
2024-01-26T07:24:54.496Z,100.00
2024-01-26T07:27:39.478Z,100.00
2024-01-26T07:30:24.575Z,100.00
2024-01-26T07:33:10.018Z,100.00
2024-01-26T07:35:55.340Z,100.00
2024-01-26T07:38:40.312Z,100.00
2024-01-26T07:41:25.259Z,100.00
2024-01-26T07:44:09.962Z,100.00
2024-01-26T07:46:54.841Z,100.00
2024-01-26T07:49:39.818Z,100.00
2024-01-26T07:52:25.271Z,100.00
2024-01-26T07:55:10.694Z,100.00
2024-01-26T07:57:55.526Z,100.00
2024-01-26T08:00:40.532Z,100.00
2024-01-26T08:03:25.455Z,100.00
2024-01-26T08:06:11.022Z,100.00
2024-01-26T08:08:56.328Z,100.00
2024-01-26T08:11:41.909Z,100.00
2024-01-26T08:14:27.064Z,100.00
2024-01-26T08:17:11.945Z,100.00
2024-01-26T08:19:57.926Z,100.00
2024-01-26T08:22:42.824Z,100.00
2024-01-26T08:25:27.825Z,100.00
2024-01-26T08:28:13.139Z,100.00
2024-01-26T08:30:58.061Z,100.00
2024-01-26T08:33:43.506Z,100.00
2024-01-26T08:36:28.955Z,100.00
2024-01-26T08:39:14.593Z,100.00
2024-01-26T08:41:59.876Z,100.00
2024-01-26T08:44:45.385Z,100.00
2024-01-26T08:47:30.579Z,100.00
2024-01-26T08:50:15.480Z,100.00
2024-01-26T08:53:00.453Z,100.00
2024-01-26T08:55:45.424Z,100.00
2024-01-26T08:58:30.779Z,100.00
2024-01-26T09:01:15.723Z,100.00
2024-01-26T09:04:00.554Z,100.00
2024-01-26T09:06:49.665Z,100.00
2024-01-26T09:09:36.957Z,100.00
2024-01-26T09:12:21.906Z,100.00
2024-01-26T09:15:07.987Z,100.00
2024-01-26T09:17:53.347Z,100.00
2024-01-26T09:20:38.580Z,100.00
2024-01-26T09:23:23.647Z,100.00
2024-01-26T09:26:09.081Z,100.00
2024-01-26T09:28:53.844Z,100.00
2024-01-26T09:31:38.771Z,100.00
2024-01-26T09:34:24.112Z,100.00
2024-01-26T09:37:09.193Z,100.00
2024-01-26T09:39:54.162Z,100.00
2024-01-26T09:42:38.962Z,100.00
2024-01-26T09:45:23.947Z,100.00
2024-01-26T09:48:10.232Z,100.00
2024-01-26T09:50:55.845Z,100.00
2024-01-26T09:53:41.148Z,100.00
2024-01-26T09:56:26.481Z,100.00
2024-01-26T09:59:11.442Z,100.00
2024-01-26T10:01:56.477Z,100.00
2024-01-26T10:04:41.416Z,100.00
2024-01-26T10:07:26.927Z,100.00
2024-01-26T10:10:12.587Z,100.00
2024-01-26T10:12:57.549Z,100.00
2024-01-26T10:15:42.419Z,100.00
2024-01-26T10:18:38.685Z,100.00
2024-01-26T10:21:24.051Z,100.00
2024-01-26T10:24:10.539Z,100.00
2024-01-26T10:26:55.560Z,100.00
2024-01-26T10:29:41.384Z,100.00
2024-01-26T10:32:30.416Z,100.00
2024-01-26T10:35:18.088Z,100.00
2024-01-26T10:38:05.332Z,100.00
2024-01-26T10:40:55.900Z,100.00
2024-01-26T10:43:44.906Z,100.00
2024-01-26T10:46:30.115Z,100.00
2024-01-26T10:49:16.402Z,100.00
2024-01-26T10:52:03.449Z,100.00
2024-01-26T10:54:50.587Z,100.00
2024-01-26T10:57:35.388Z,100.00
2024-01-26T11:00:20.951Z,100.00
2024-01-26T11:03:06.405Z,100.00
2024-01-26T11:05:52.238Z,100.00
2024-01-26T11:08:37.609Z,100.00
2024-01-26T11:11:22.647Z,100.00
2024-01-26T11:14:11.926Z,100.00
2024-01-26T11:17:09.043Z,100.00
2024-01-26T11:20:01.253Z,100.00
2024-01-26T11:22:46.806Z,100.00
2024-01-26T11:25:39.410Z,100.00
2024-01-26T11:28:26.481Z,100.00
2024-01-26T11:31:12.693Z,100.00
2024-01-26T11:33:57.849Z,100.00
2024-01-26T11:36:43.009Z,100.00
2024-01-26T11:39:28.091Z,100.00
2024-01-26T11:42:13.133Z,100.00
2024-01-26T11:45:09.733Z,100.00
2024-01-26T11:47:55.990Z,100.00
2024-01-26T11:50:42.986Z,100.00
2024-01-26T11:53:28.784Z,100.00
2024-01-26T11:56:14.763Z,100.00
2024-01-26T11:59:00.062Z,100.00
2024-01-26T12:01:45.048Z,100.00
2024-01-26T12:04:30.080Z,100.00
2024-01-26T12:07:15.912Z,100.00
2024-01-26T12:10:00.652Z,100.00
2024-01-26T12:12:46.214Z,100.00
2024-01-26T12:15:31.539Z,100.00
2024-01-26T12:18:17.258Z,100.00
2024-01-26T12:21:03.321Z,100.00
2024-01-26T12:23:51.519Z,100.00
2024-01-26T12:26:36.969Z,100.00
2024-01-26T12:29:24.032Z,99.81
2024-01-26T12:32:10.279Z,98.93
2024-01-26T12:34:55.242Z,98.85
2024-01-26T12:37:40.410Z,97.07
2024-01-26T12:40:25.265Z,95.53
2024-01-26T12:43:11.190Z,93.74
2024-01-26T12:45:56.482Z,92.56
2024-01-26T12:48:41.514Z,91.24
2024-01-26T12:51:26.618Z,89.90
2024-01-26T12:54:11.555Z,89.44
2024-01-26T12:56:56.468Z,89.23
2024-01-26T12:59:41.410Z,89.25
2024-01-26T13:02:26.374Z,89.38
2024-01-26T13:05:11.494Z,87.90
2024-01-26T13:07:56.583Z,86.37
2024-01-26T13:10:41.238Z,86.44
2024-01-26T13:13:26.202Z,85.77
2024-01-26T13:16:11.106Z,85.16
2024-01-26T13:18:56.109Z,83.42
2024-01-26T13:21:41.412Z,81.05
2024-01-26T13:24:26.543Z,79.14
2024-01-26T13:27:16.892Z,78.29
2024-01-26T13:30:02.783Z,78.23
2024-01-26T13:32:47.931Z,77.80
2024-01-26T13:35:33.274Z,77.98
2024-01-26T13:38:18.074Z,78.06
2024-01-26T13:41:03.134Z,78.70
2024-01-26T13:43:47.991Z,79.01
2024-01-26T13:46:32.912Z,80.00
2024-01-26T13:49:17.989Z,80.37
2024-01-26T13:52:03.485Z,80.33
2024-01-26T13:54:48.637Z,80.37
2024-01-26T13:57:33.463Z,80.73
2024-01-26T14:00:21.834Z,80.37
2024-01-26T14:03:08.605Z,79.00
2024-01-26T14:05:54.158Z,78.75
2024-01-26T14:08:39.639Z,78.71
2024-01-26T14:11:24.788Z,78.60
2024-01-26T14:14:09.747Z,79.04
2024-01-26T14:16:54.793Z,79.64
2024-01-26T14:19:39.683Z,81.59
2024-01-26T14:22:25.155Z,82.53
2024-01-26T14:25:09.968Z,83.06
2024-01-26T14:27:55.547Z,82.79
2024-01-26T14:30:40.626Z,82.97
2024-01-26T14:33:25.467Z,82.30
2024-01-26T14:36:10.873Z,82.49
2024-01-26T14:38:55.633Z,82.70
2024-01-26T14:41:40.715Z,82.62
2024-01-26T14:44:25.562Z,82.26
2024-01-26T14:47:10.512Z,81.95
2024-01-26T14:49:55.429Z,81.62
2024-01-26T14:52:41.315Z,81.53
2024-01-26T14:55:26.206Z,81.10
2024-01-26T14:58:11.157Z,81.55
2024-01-26T15:00:56.164Z,81.78
2024-01-26T15:03:41.040Z,82.23
2024-01-26T15:06:26.590Z,82.86
2024-01-26T15:09:11.851Z,82.32
2024-01-26T15:11:57.022Z,82.60
2024-01-26T15:14:41.975Z,82.63
2024-01-26T15:17:26.975Z,83.06
2024-01-26T15:20:12.745Z,83.64
2024-01-26T15:22:57.760Z,84.41
2024-01-26T15:25:42.802Z,84.97
2024-01-26T15:28:27.613Z,85.75
2024-01-26T15:31:21.330Z,86.53
2024-01-26T15:34:06.646Z,87.53
2024-01-26T15:36:51.852Z,88.54
2024-01-26T15:39:37.551Z,88.71
2024-01-26T15:42:22.827Z,88.54
2024-01-26T15:45:08.528Z,88.52
2024-01-26T15:47:53.713Z,88.45
2024-01-26T15:50:39.023Z,88.34
2024-01-26T15:53:23.812Z,88.35
2024-01-26T15:56:09.332Z,88.14
2024-01-26T15:58:54.307Z,87.94
2024-01-26T16:01:39.146Z,88.01
2024-01-26T16:04:23.991Z,87.93
2024-01-26T16:07:09.249Z,88.34
2024-01-26T16:09:54.170Z,88.76
2024-01-26T16:12:39.151Z,89.86
2024-01-26T16:15:24.620Z,90.40
2024-01-26T16:18:09.582Z,90.58
2024-01-26T16:20:54.894Z,91.08
2024-01-26T16:23:40.256Z,91.46
2024-01-26T16:26:25.107Z,91.57
2024-01-26T16:29:10.010Z,91.49
2024-01-26T16:31:54.804Z,91.46
2024-01-26T16:34:39.856Z,91.43
2024-01-26T16:37:25.366Z,91.27
2024-01-26T16:40:10.992Z,91.31
2024-01-26T16:42:56.233Z,90.97
2024-01-26T16:45:41.230Z,90.84
2024-01-26T16:48:26.000Z,90.99
2024-01-26T16:51:11.400Z,90.78
2024-01-26T16:53:56.406Z,90.99
2024-01-26T16:56:42.401Z,91.50
2024-01-26T16:59:27.401Z,91.48
2024-01-26T17:02:12.480Z,91.50
2024-01-26T17:04:57.352Z,92.67
2024-01-26T17:07:42.328Z,93.10
2024-01-26T17:10:27.183Z,93.80
2024-01-26T17:13:12.664Z,94.50
2024-01-26T17:15:57.445Z,94.94
2024-01-26T17:18:42.691Z,95.72
2024-01-26T17:21:27.883Z,95.94
2024-01-26T17:24:13.399Z,96.41
2024-01-26T17:26:58.248Z,96.64
2024-01-26T17:29:43.176Z,96.98
2024-01-26T17:32:31.142Z,96.72
2024-01-26T17:35:16.442Z,96.23
2024-01-26T17:38:01.782Z,95.81
2024-01-26T17:40:46.557Z,95.35
2024-01-26T17:43:31.531Z,94.60
2024-01-26T17:46:16.519Z,94.07
2024-01-26T17:49:01.476Z,94.09
2024-01-26T17:51:46.891Z,93.89
2024-01-26T17:54:31.804Z,94.09
2024-01-26T17:57:17.268Z,94.01
2024-01-26T18:00:02.120Z,94.09
2024-01-26T18:02:47.184Z,93.95
2024-01-26T18:05:32.521Z,93.77
2024-01-26T18:08:17.341Z,93.79
2024-01-26T18:11:02.155Z,93.15
2024-01-26T18:13:47.137Z,93.07
2024-01-26T18:16:32.149Z,92.87
2024-01-26T18:19:17.221Z,92.48
2024-01-26T18:22:02.438Z,92.10
2024-01-26T18:24:47.275Z,91.95
2024-01-26T18:27:32.191Z,91.54
2024-01-26T18:30:17.451Z,91.37
2024-01-26T18:33:02.555Z,91.33
2024-01-26T18:35:47.903Z,91.18
2024-01-26T18:38:32.765Z,90.75
2024-01-26T18:41:25.095Z,90.23
2024-01-26T18:44:10.367Z,89.17
2024-01-26T18:46:55.841Z,88.71
2024-01-26T18:49:42.290Z,88.12
2024-01-26T18:52:27.750Z,87.60
2024-01-26T18:55:12.519Z,86.63
2024-01-26T18:57:57.362Z,85.98
2024-01-26T19:00:42.921Z,85.56
2024-01-26T19:03:28.447Z,85.19
2024-01-26T19:06:14.344Z,85.01
2024-01-26T19:08:59.558Z,84.84
2024-01-26T19:11:45.351Z,84.80
2024-01-26T19:14:30.743Z,84.37
2024-01-26T19:17:16.172Z,83.67
2024-01-26T19:20:01.158Z,82.65
2024-01-26T19:22:46.649Z,82.73
2024-01-26T19:25:32.112Z,81.94
2024-01-26T19:28:17.261Z,81.92
2024-01-26T19:31:02.473Z,81.45
2024-01-26T19:33:47.462Z,81.72
2024-01-26T19:36:32.696Z,81.72
2024-01-26T19:39:17.703Z,81.79
2024-01-26T19:42:02.566Z,81.72
2024-01-26T19:44:47.493Z,81.45
2024-01-26T19:47:32.791Z,81.85
2024-01-26T19:50:17.860Z,81.70
2024-01-26T19:53:03.831Z,81.56
2024-01-26T19:55:48.974Z,81.48
2024-01-26T19:58:34.479Z,81.47
2024-01-26T20:01:19.394Z,81.36
2024-01-26T20:04:04.352Z,80.73
2024-01-26T20:06:49.191Z,80.72
2024-01-26T20:09:36.540Z,80.83
2024-01-26T20:12:22.600Z,80.95
2024-01-26T20:15:08.450Z,81.41
2024-01-26T20:17:53.745Z,81.56
2024-01-26T20:20:39.074Z,81.09
2024-01-26T20:23:24.564Z,81.57
2024-01-26T20:26:10.314Z,81.67
2024-01-26T20:28:56.039Z,81.79
2024-01-26T20:31:41.014Z,81.94
2024-01-26T20:34:26.441Z,82.22
2024-01-26T20:37:11.777Z,82.43
2024-01-26T20:39:56.704Z,82.50
2024-01-26T20:42:43.277Z,82.38
2024-01-26T20:45:30.032Z,82.74
2024-01-26T20:48:15.632Z,82.75
2024-01-26T20:51:00.740Z,82.95
2024-01-26T20:53:46.222Z,83.31
2024-01-26T20:56:31.093Z,83.45
2024-01-26T20:59:16.166Z,83.53
2024-01-26T21:02:01.105Z,83.50
2024-01-26T21:04:45.985Z,83.75
2024-01-26T21:07:31.277Z,83.88
2024-01-26T21:10:16.100Z,84.20
2024-01-26T21:13:00.988Z,84.55
2024-01-26T21:15:46.055Z,84.47
2024-01-26T21:18:31.616Z,84.31
2024-01-26T21:21:16.812Z,84.95
2024-01-26T21:24:01.760Z,85.36
2024-01-26T21:26:46.612Z,85.88
2024-01-26T21:29:31.549Z,86.13
2024-01-26T21:32:16.483Z,86.25
2024-01-26T21:35:01.698Z,86.29
2024-01-26T21:37:47.560Z,86.18
2024-01-26T21:40:32.989Z,86.52
2024-01-26T21:43:18.287Z,86.65
2024-01-26T21:46:03.178Z,86.31
2024-01-26T21:48:48.300Z,86.49
2024-01-26T21:51:42.850Z,86.54
2024-01-26T21:54:33.175Z,87.04
2024-01-26T21:57:18.533Z,87.20
2024-01-26T22:00:04.553Z,87.19
2024-01-26T22:02:49.651Z,87.55
2024-01-26T22:05:35.010Z,88.44
2024-01-26T22:08:19.931Z,87.89
2024-01-26T22:11:09.007Z,88.41
2024-01-26T22:13:54.157Z,88.36
2024-01-26T22:16:39.345Z,88.52
2024-01-26T22:19:24.735Z,89.32
2024-01-26T22:22:10.051Z,89.28
2024-01-26T22:24:54.925Z,89.68
2024-01-26T22:27:40.461Z,89.64
2024-01-26T22:30:25.430Z,89.75
2024-01-26T22:33:10.392Z,89.88
2024-01-26T22:35:55.743Z,89.95
2024-01-26T22:38:40.869Z,90.57
2024-01-26T22:41:25.856Z,90.81
2024-01-26T22:44:10.812Z,91.34
2024-01-26T22:46:55.741Z,91.59
2024-01-26T22:49:40.876Z,91.58
2024-01-26T22:52:26.164Z,92.29
2024-01-26T22:55:11.077Z,92.18
2024-01-26T22:57:56.054Z,92.41
2024-01-26T23:00:41.333Z,92.12
2024-01-26T23:03:26.781Z,92.14
2024-01-26T23:06:16.574Z,92.50
2024-01-26T23:09:01.522Z,93.01
2024-01-26T23:11:46.948Z,93.56
2024-01-26T23:14:31.768Z,93.84
2024-01-26T23:17:16.764Z,94.37
2024-01-26T23:20:01.640Z,94.50
2024-01-26T23:22:47.017Z,94.58
2024-01-26T23:25:31.827Z,94.85
2024-01-26T23:28:16.767Z,95.22
2024-01-26T23:31:01.725Z,95.30
2024-01-26T23:33:46.856Z,95.83
2024-01-26T23:36:32.003Z,96.21
2024-01-26T23:39:16.881Z,96.76
2024-01-26T23:42:02.319Z,96.88
2024-01-26T23:44:47.156Z,97.38
2024-01-26T23:47:32.092Z,97.64
2024-01-26T23:50:17.415Z,98.20
2024-01-26T23:53:02.461Z,98.46
2024-01-26T23:55:47.274Z,99.05
2024-01-26T23:58:32.158Z,99.51
